sensor_id;sensor_type;location;lat;lon;timestamp;pressure;altitude;pressure_sealevel;temperature;humidity
8477;BME280;4275;42.854;23.222;2023-06-22T00:01:19;51578.28;;;-141.02;100.00
8477;BME280;4275;42.854;23.222;2023-06-22T00:03:47;51582.13;;;-141.02;100.00
8477;BME280;4275;42.854;23.222;2023-06-22T00:06:15;51907.44;;;-141.02;100.00
8477;BME280;4275;42.854;23.222;2023-06-22T00:08:42;51824.66;;;-141.02;100.00
8477;BME280;4275;42.854;23.222;2023-06-22T00:11:09;51389.66;;;-141.02;100.00
8477;BME280;4275;42.854;23.222;2023-06-22T00:13:37;51312.69;;;-141.02;100.00
8477;BME280;4275;42.854;23.222;2023-06-22T00:16:04;51666.81;;;-141.02;100.00
8477;BME280;4275;42.854;23.222;2023-06-22T00:18:31;51582.13;;;-141.02;100.00
8477;BME280;4275;42.854;23.222;2023-06-22T00:20:59;52321.31;;;-141.02;100.00
8477;BME280;4275;42.854;23.222;2023-06-22T00:23:26;51339.63;;;-141.02;100.00
8477;BME280;4275;42.854;23.222;2023-06-22T00:25:54;51127.94;;;-141.02;100.00
8477;BME280;4275;42.854;23.222;2023-06-22T00:28:22;50785.38;;;-141.02;100.00
8477;BME280;4275;42.854;23.222;2023-06-22T00:30:50;51079.81;;;-141.02;100.00
8477;BME280;4275;42.854;23.222;2023-06-22T00:33:17;51381.97;;;-141.02;100.00
8477;BME280;4275;42.854;23.222;2023-06-22T00:35:44;51551.34;;;-141.02;100.00
8477;BME280;4275;42.854;23.222;2023-06-22T00:38:11;51147.16;;;-141.02;100.00
8477;BME280;4275;42.854;23.222;2023-06-22T00:40:38;51628.31;;;-141.02;100.00
8477;BME280;4275;42.854;23.222;2023-06-22T00:43:05;52015.22;;;-141.02;100.00
8477;BME280;4275;42.854;23.222;2023-06-22T00:45:32;51924.75;;;-141.02;100.00
8477;BME280;4275;42.854;23.222;2023-06-22T00:48:01;51254.94;;;-141.02;100.00
8477;BME280;4275;42.854;23.222;2023-06-22T00:50:31;51079.81;;;-141.02;100.00
8477;BME280;4275;42.854;23.222;2023-06-22T00:53:03;50989.38;;;-141.02;100.00
8477;BME280;4275;42.854;23.222;2023-06-22T00:55:35;51024.00;;;-141.02;100.00
8477;BME280;4275;42.854;23.222;2023-06-22T00:58:05;51220.31;;;-141.02;100.00
8477;BME280;4275;42.854;23.222;2023-06-22T01:00:36;51264.56;;;-141.02;100.00
8477;BME280;4275;42.854;23.222;2023-06-22T01:03:04;50789.25;;;-141.02;100.00
8477;BME280;4275;42.854;23.222;2023-06-22T01:05:34;50839.25;;;-141.02;100.00
8477;BME280;4275;42.854;23.222;2023-06-22T01:08:16;51058.66;;;-141.02;100.00
8477;BME280;4275;42.854;23.222;2023-06-22T01:10:50;51499.38;;;-141.02;100.00
8477;BME280;4275;42.854;23.222;2023-06-22T01:13:25;52494.56;;;-141.02;100.00
8477;BME280;4275;42.854;23.222;2023-06-22T01:15:57;52947.03;;;-141.02;100.00
8477;BME280;4275;42.854;23.222;2023-06-22T01:18:30;53249.38;;;-141.02;100.00
8477;BME280;4275;42.854;23.222;2023-06-22T01:21:00;53569.03;;;-141.02;100.00
8477;BME280;4275;42.854;23.222;2023-06-22T01:23:35;53942.69;;;-141.02;100.00
8477;BME280;4275;42.854;23.222;2023-06-22T01:26:11;53977.34;;;-141.02;100.00
8477;BME280;4275;42.854;23.222;2023-06-22T01:28:46;54875.03;;;-141.02;100.00
8477;BME280;4275;42.854;23.222;2023-06-22T01:31:16;55052.28;;;-141.02;100.00
8477;BME280;4275;42.854;23.222;2023-06-22T01:33:47;55562.91;;;-141.02;100.00
8477;BME280;4275;42.854;23.222;2023-06-22T01:36:16;56439.78;;;-141.02;100.00
8477;BME280;4275;42.854;23.222;2023-06-22T01:38:44;57712.19;;;-141.02;100.00
8477;BME280;4275;42.854;23.222;2023-06-22T01:41:12;58487.41;;;-141.02;100.00
8477;BME280;4275;42.854;23.222;2023-06-22T01:43:40;59475.03;;;-141.02;100.00
8477;BME280;4275;42.854;23.222;2023-06-22T01:46:09;60462.94;;;-141.02;100.00
8477;BME280;4275;42.854;23.222;2023-06-22T01:48:37;61451.13;;;-141.02;100.00
8477;BME280;4275;42.854;23.222;2023-06-22T01:51:05;61945.31;;;-141.02;100.00
8477;BME280;4275;42.854;23.222;2023-06-22T01:53:32;61945.31;;;-141.02;100.00
8477;BME280;4275;42.854;23.222;2023-06-22T01:55:59;61698.22;;;-141.02;100.00
8477;BME280;4275;42.854;23.222;2023-06-22T01:58:27;61945.31;;;-141.02;100.00
8477;BME280;4275;42.854;23.222;2023-06-22T02:00:58;62686.75;;;-141.02;100.00
8477;BME280;4275;42.854;23.222;2023-06-22T02:03:33;63181.16;;;-141.02;100.00
8477;BME280;4275;42.854;23.222;2023-06-22T02:06:05;63922.84;;;-141.02;100.00
8477;BME280;4275;42.854;23.222;2023-06-22T02:08:38;64912.06;;;-141.02;100.00
8477;BME280;4275;42.854;23.222;2023-06-22T02:11:08;65654.13;;;-141.02;100.00
8477;BME280;4275;42.854;23.222;2023-06-22T02:13:36;65901.53;;;-141.02;100.00
8477;BME280;4275;42.854;23.222;2023-06-22T02:16:08;66148.94;;;-141.02;100.00
8477;BME280;4275;42.854;23.222;2023-06-22T02:18:37;66891.31;;;-141.02;100.00
8477;BME280;4275;42.854;23.222;2023-06-22T02:21:05;67138.78;;;-141.02;100.00
8477;BME280;4275;42.854;23.222;2023-06-22T02:23:33;67633.81;;;-141.02;100.00
8477;BME280;4275;42.854;23.222;2023-06-22T02:26:01;68128.91;;;-141.02;100.00
8477;BME280;4275;42.854;23.222;2023-06-22T02:28:29;68871.72;;;-141.02;100.00
8477;BME280;4275;42.854;23.222;2023-06-22T02:30:56;69614.66;;;-141.02;100.00
8477;BME280;4275;42.854;23.222;2023-06-22T02:33:22;70357.75;;;-141.02;100.00
8477;BME280;4275;42.854;23.222;2023-06-22T02:35:51;71348.81;;;-141.02;100.00
8477;BME280;4275;42.854;23.222;2023-06-22T02:38:18;73083.88;;;-141.02;100.00
8477;BME280;4275;42.854;23.222;2023-06-22T02:40:46;74571.75;;;-141.02;100.00
8477;BME280;4275;42.854;23.222;2023-06-22T02:43:13;76308.44;;;-141.02;100.00
8477;BME280;4275;42.854;23.222;2023-06-22T02:45:40;77797.72;;;-141.02;100.00
8477;BME280;4275;42.854;23.222;2023-06-22T02:48:07;79536.03;;;-141.02;100.00
8477;BME280;4275;42.854;23.222;2023-06-22T02:50:34;80281.31;;;-141.02;100.00
8477;BME280;4275;42.854;23.222;2023-06-22T02:53:02;81772.31;;;-141.02;100.00
8477;BME280;4275;42.854;23.222;2023-06-22T02:55:29;82518.06;;;-141.02;100.00
8477;BME280;4275;42.854;23.222;2023-06-22T02:57:57;83015.31;;;-141.02;100.00
8477;BME280;4275;42.854;23.222;2023-06-22T03:00:25;84258.75;;;-141.02;100.00
8477;BME280;4275;42.854;23.222;2023-06-22T03:02:56;85005.03;;;-141.02;100.00
8477;BME280;4275;42.854;23.222;2023-06-22T03:05:24;85751.50;;;-141.02;100.00
8477;BME280;4275;42.854;23.222;2023-06-22T03:07:51;87244.88;;;-141.02;100.00
8477;BME280;4275;42.854;23.222;2023-06-22T03:10:20;88240.81;;;-141.02;100.00
8477;BME280;4275;42.854;23.222;2023-06-22T03:12:47;89735.28;;;-141.02;100.00
8477;BME280;4275;42.854;23.222;2023-06-22T03:15:14;90981.13;;;-141.02;100.00
8477;BME280;4275;42.854;23.222;2023-06-22T03:17:42;91230.38;;;-141.02;100.00
8477;BME280;4275;42.854;23.222;2023-06-22T03:20:10;90482.72;;;-141.02;100.00
8477;BME280;4275;42.854;23.222;2023-06-22T03:22:38;90233.56;;;-141.02;100.00
8477;BME280;4275;42.854;23.222;2023-06-22T03:25:07;90233.56;;;-141.02;100.00
8477;BME280;4275;42.854;23.222;2023-06-22T03:27:40;89735.28;;;-141.02;100.00
8477;BME280;4275;42.854;23.222;2023-06-22T03:30:09;89735.28;;;-141.02;100.00
8477;BME280;4275;42.854;23.222;2023-06-22T03:32:39;89984.41;;;-141.02;100.00
8477;BME280;4275;42.854;23.222;2023-06-22T03:35:08;89237.03;;;-141.02;100.00
8477;BME280;4275;42.854;23.222;2023-06-22T03:37:36;87991.81;;;-141.02;100.00
8477;BME280;4275;42.854;23.222;2023-06-22T03:40:03;86498.09;;;-141.02;100.00
8477;BME280;4275;42.854;23.222;2023-06-22T03:42:33;85005.03;;;-141.02;100.00
8477;BME280;4275;42.854;23.222;2023-06-22T03:45:03;85253.84;;;-141.02;100.00
8477;BME280;4275;42.854;23.222;2023-06-22T03:47:31;85751.50;;;-141.02;100.00
8477;BME280;4275;42.854;23.222;2023-06-22T03:50:01;85502.66;;;-141.02;100.00
8477;BME280;4275;42.854;23.222;2023-06-22T03:52:29;85253.84;;;-141.02;100.00
8477;BME280;4275;42.854;23.222;2023-06-22T03:54:56;85005.03;;;-141.02;100.00
8477;BME280;4275;42.854;23.222;2023-06-22T03:57:23;85253.84;;;-141.02;100.00
8477;BME280;4275;42.854;23.222;2023-06-22T03:59:50;84756.25;;;-141.02;100.00
8477;BME280;4275;42.854;23.222;2023-06-22T04:02:18;84258.75;;;-141.02;100.00
8477;BME280;4275;42.854;23.222;2023-06-22T04:04:45;82766.69;;;-141.02;100.00
8477;BME280;4275;42.854;23.222;2023-06-22T04:07:12;81275.25;;;-141.02;100.00
8477;BME280;4275;42.854;23.222;2023-06-22T04:09:39;79784.44;;;-141.02;100.00
8477;BME280;4275;42.854;23.222;2023-06-22T04:12:07;78046.00;;;-141.02;100.00
8477;BME280;4275;42.854;23.222;2023-06-22T04:14:34;76804.81;;;-141.02;100.00
8477;BME280;4275;42.854;23.222;2023-06-22T04:17:01;75812.16;;;-141.02;98.03
8477;BME280;4275;42.854;23.222;2023-06-22T04:19:30;76308.44;;;-141.02;98.47
8477;BME280;4275;42.854;23.222;2023-06-22T04:21:57;75315.94;;;-141.02;90.05
8477;BME280;4275;42.854;23.222;2023-06-22T04:24:24;74819.81;;;-141.02;85.44
8477;BME280;4275;42.854;23.222;2023-06-22T04:26:50;73579.75;;;-141.02;83.08
8477;BME280;4275;42.854;23.222;2023-06-22T04:29:20;72340.16;;;-141.02;86.94
8477;BME280;4275;42.854;23.222;2023-06-22T05:01:31;74323.72;;;-141.02;77.29
8477;BME280;4275;42.854;23.222;2023-06-22T05:03:58;74075.72;;;-141.02;77.70
8477;BME280;4275;42.854;23.222;2023-06-22T05:06:27;73827.72;;;-141.02;75.66
8477;BME280;4275;42.854;23.222;2023-06-22T05:08:55;74075.72;;;-141.02;74.55
8477;BME280;4275;42.854;23.222;2023-06-22T05:11:24;73579.75;;;-141.02;72.54
8477;BME280;4275;42.854;23.222;2023-06-22T05:13:52;73579.75;;;-141.02;72.70
8477;BME280;4275;42.854;23.222;2023-06-22T05:16:20;73579.75;;;-141.02;71.68
8477;BME280;4275;42.854;23.222;2023-06-22T05:18:52;73331.81;;;-141.02;75.16
8477;BME280;4275;42.854;23.222;2023-06-22T05:21:22;73827.72;;;-141.02;77.70
8477;BME280;4275;42.854;23.222;2023-06-22T05:23:50;73331.81;;;-141.02;77.14
8477;BME280;4275;42.854;23.222;2023-06-22T05:26:18;73083.88;;;-141.02;73.99
8477;BME280;4275;42.854;23.222;2023-06-22T05:28:45;70853.25;;;-141.02;72.51
8477;BME280;4275;42.854;23.222;2023-06-22T05:31:13;71101.03;;;-141.02;74.94
8477;BME280;4275;42.854;23.222;2023-06-22T05:33:40;70357.75;;;-141.02;75.39
8477;BME280;4275;42.854;23.222;2023-06-22T05:36:09;70357.75;;;-141.02;79.10
8477;BME280;4275;42.854;23.222;2023-06-22T05:38:36;71101.03;;;-141.02;79.16
8477;BME280;4275;42.854;23.222;2023-06-22T05:41:03;70605.50;;;-141.02;82.46
8477;BME280;4275;42.854;23.222;2023-06-22T05:43:31;69614.66;;;-141.02;83.90
8477;BME280;4275;42.854;23.222;2023-06-22T05:45:58;70110.03;;;-141.02;86.49
8477;BME280;4275;42.854;23.222;2023-06-22T05:48:25;72588.06;;;-141.02;92.38
8477;BME280;4275;42.854;23.222;2023-06-22T05:50:52;71348.81;;;-141.02;87.31
8477;BME280;4275;42.854;23.222;2023-06-22T05:53:20;72340.16;;;-141.02;87.36
8477;BME280;4275;42.854;23.222;2023-06-22T05:55:48;73083.88;;;-141.02;86.40
8477;BME280;4275;42.854;23.222;2023-06-22T05:58:15;71101.03;;;-141.02;90.41
8477;BME280;4275;42.854;23.222;2023-06-22T06:00:42;72092.31;;;-141.02;91.53
8477;BME280;4275;42.854;23.222;2023-06-22T06:03:10;72835.97;;;-141.02;91.03
8477;BME280;4275;42.854;23.222;2023-06-22T06:05:37;74075.72;;;-141.02;91.04
8477;BME280;4275;42.854;23.222;2023-06-22T06:08:05;72340.16;;;-141.02;88.17
8477;BME280;4275;42.854;23.222;2023-06-22T06:10:35;73579.75;;;-141.02;89.46
8477;BME280;4275;42.854;23.222;2023-06-22T06:13:02;72340.16;;;-141.02;86.92
8477;BME280;4275;42.854;23.222;2023-06-22T06:15:30;73579.75;;;-141.02;89.90
8477;BME280;4275;42.854;23.222;2023-06-22T06:17:57;73579.75;;;-141.02;88.62
8477;BME280;4275;42.854;23.222;2023-06-22T06:20:25;74075.72;;;-141.02;87.24
8477;BME280;4275;42.854;23.222;2023-06-22T06:22:53;75067.88;;;-141.02;88.40
8477;BME280;4275;42.854;23.222;2023-06-22T06:25:20;75812.16;;;-141.02;87.90
8477;BME280;4275;42.854;23.222;2023-06-22T06:27:50;75812.16;;;-141.02;86.95
8477;BME280;4275;42.854;23.222;2023-06-22T06:30:20;73827.72;;;-141.02;83.88
8477;BME280;4275;42.854;23.222;2023-06-22T06:32:47;74075.72;;;-141.02;83.87
8477;BME280;4275;42.854;23.222;2023-06-22T06:35:15;74323.72;;;-141.02;84.46
8477;BME280;4275;42.854;23.222;2023-06-22T06:37:43;74819.81;;;-141.02;84.89
8477;BME280;4275;42.854;23.222;2023-06-22T06:40:11;75812.16;;;-141.02;81.98
8477;BME280;4275;42.854;23.222;2023-06-22T06:42:39;75812.16;;;-141.02;81.66
8477;BME280;4275;42.854;23.222;2023-06-22T06:45:09;75067.88;;;-141.02;79.99
8477;BME280;4275;42.854;23.222;2023-06-22T06:47:37;76556.59;;;-141.02;82.96
8477;BME280;4275;42.854;23.222;2023-06-22T06:50:05;76804.81;;;-141.02;80.22
8477;BME280;4275;42.854;23.222;2023-06-22T06:52:32;76060.28;;;-141.02;79.24
8477;BME280;4275;42.854;23.222;2023-06-22T06:54:59;76060.28;;;-141.02;78.42
8477;BME280;4275;42.854;23.222;2023-06-22T06:57:26;76308.44;;;-141.02;75.42
8477;BME280;4275;42.854;23.222;2023-06-22T06:59:54;75812.16;;;-141.02;74.60
8477;BME280;4275;42.854;23.222;2023-06-22T07:02:24;75564.03;;;-141.02;77.18
8477;BME280;4275;42.854;23.222;2023-06-22T07:04:51;75067.88;;;-141.02;74.45
8477;BME280;4275;42.854;23.222;2023-06-22T07:07:18;76308.44;;;-141.02;76.04
8477;BME280;4275;42.854;23.222;2023-06-22T07:09:45;75812.16;;;-141.02;74.54
8477;BME280;4275;42.854;23.222;2023-06-22T07:12:12;75812.16;;;-141.02;74.56
8477;BME280;4275;42.854;23.222;2023-06-22T07:14:39;75564.03;;;-141.02;73.02
8477;BME280;4275;42.854;23.222;2023-06-22T07:17:06;76308.44;;;-141.02;73.52
8477;BME280;4275;42.854;23.222;2023-06-22T07:19:34;74323.72;;;-141.02;72.33
8477;BME280;4275;42.854;23.222;2023-06-22T07:22:01;75315.94;;;-141.02;73.19
8477;BME280;4275;42.854;23.222;2023-06-22T07:24:28;76556.59;;;-141.02;72.96
8477;BME280;4275;42.854;23.222;2023-06-22T07:26:55;75564.03;;;-141.02;73.14
8477;BME280;4275;42.854;23.222;2023-06-22T07:29:24;72835.97;;;-141.02;75.10
8477;BME280;4275;42.854;23.222;2023-06-22T07:31:52;74323.72;;;-141.02;77.65
8477;BME280;4275;42.854;23.222;2023-06-22T07:34:21;72588.06;;;-141.02;76.48
8477;BME280;4275;42.854;23.222;2023-06-22T07:36:50;73083.88;;;-141.02;77.27
8477;BME280;4275;42.854;23.222;2023-06-22T07:39:17;74571.75;;;-141.02;80.52
8477;BME280;4275;42.854;23.222;2023-06-22T07:41:44;74075.72;;;-141.02;78.19
8477;BME280;4275;42.854;23.222;2023-06-22T07:44:11;73827.72;;;-141.02;81.07
8477;BME280;4275;42.854;23.222;2023-06-22T07:46:38;73331.81;;;-141.02;79.38
8477;BME280;4275;42.854;23.222;2023-06-22T07:49:05;75067.88;;;-141.02;80.48
8477;BME280;4275;42.854;23.222;2023-06-22T07:51:33;73827.72;;;-141.02;78.20
8477;BME280;4275;42.854;23.222;2023-06-22T07:54:02;75564.03;;;-141.02;79.04
8477;BME280;4275;42.854;23.222;2023-06-22T07:56:29;75067.88;;;-141.02;76.54
8477;BME280;4275;42.854;23.222;2023-06-22T07:58:56;76804.81;;;-141.02;80.28
8477;BME280;4275;42.854;23.222;2023-06-22T08:01:24;76556.59;;;-141.02;76.94
8477;BME280;4275;42.854;23.222;2023-06-22T08:03:51;75812.16;;;-141.02;73.41
8477;BME280;4275;42.854;23.222;2023-06-22T08:06:18;74819.81;;;-141.02;74.21
8477;BME280;4275;42.854;23.222;2023-06-22T08:08:45;76804.81;;;-141.02;78.62
8477;BME280;4275;42.854;23.222;2023-06-22T08:11:14;77053.00;;;-141.02;74.23
8477;BME280;4275;42.854;23.222;2023-06-22T08:13:42;75812.16;;;-141.02;73.57
8477;BME280;4275;42.854;23.222;2023-06-22T08:16:08;76556.59;;;-141.02;72.51
8477;BME280;4275;42.854;23.222;2023-06-22T08:18:35;75812.16;;;-141.02;74.04
8477;BME280;4275;42.854;23.222;2023-06-22T08:21:02;74075.72;;;-141.02;73.51
8477;BME280;4275;42.854;23.222;2023-06-22T08:23:29;76308.44;;;-141.02;71.47
8477;BME280;4275;42.854;23.222;2023-06-22T08:25:56;78046.00;;;-141.02;75.02
8477;BME280;4275;42.854;23.222;2023-06-22T08:28:25;77053.00;;;-141.02;69.78
8477;BME280;4275;42.854;23.222;2023-06-22T08:30:52;78790.94;;;-141.02;74.63
8477;BME280;4275;42.854;23.222;2023-06-22T08:33:21;77053.00;;;-141.02;68.42
8477;BME280;4275;42.854;23.222;2023-06-22T08:35:49;76556.59;;;-141.02;74.22
8477;BME280;4275;42.854;23.222;2023-06-22T08:38:16;78542.63;;;-141.02;76.95
8477;BME280;4275;42.854;23.222;2023-06-22T08:40:44;78046.00;;;-141.02;71.60
8477;BME280;4275;42.854;23.222;2023-06-22T08:43:11;78542.63;;;-141.02;71.44
8477;BME280;4275;42.854;23.222;2023-06-22T08:45:39;78790.94;;;-141.02;73.73
8477;BME280;4275;42.854;23.222;2023-06-22T08:48:06;77301.22;;;-141.02;67.58
8477;BME280;4275;42.854;23.222;2023-06-22T08:50:33;74819.81;;;-141.02;68.13
8477;BME280;4275;42.854;23.222;2023-06-22T08:53:00;77053.00;;;-141.02;73.71
8477;BME280;4275;42.854;23.222;2023-06-22T08:55:27;75315.94;;;-141.02;68.90
8477;BME280;4275;42.854;23.222;2023-06-22T08:57:54;74819.81;;;-141.02;70.06
8477;BME280;4275;42.854;23.222;2023-06-22T09:00:21;75067.88;;;-141.02;69.61
8477;BME280;4275;42.854;23.222;2023-06-22T09:02:49;75067.88;;;-141.02;66.70
8477;BME280;4275;42.854;23.222;2023-06-22T09:05:16;75812.16;;;-141.02;65.64
8477;BME280;4275;42.854;23.222;2023-06-22T09:07:43;76308.44;;;-141.02;65.18
8477;BME280;4275;42.854;23.222;2023-06-22T09:10:10;77301.22;;;-141.02;67.10
8477;BME280;4275;42.854;23.222;2023-06-22T09:12:38;75564.03;;;-141.02;67.29
8477;BME280;4275;42.854;23.222;2023-06-22T09:15:07;74075.72;;;-141.02;64.97
8477;BME280;4275;42.854;23.222;2023-06-22T09:17:34;72835.97;;;-141.02;66.67
8477;BME280;4275;42.854;23.222;2023-06-22T09:20:05;75067.88;;;-141.02;66.33
8477;BME280;4275;42.854;23.222;2023-06-22T09:22:35;76308.44;;;-141.02;65.14
8477;BME280;4275;42.854;23.222;2023-06-22T09:25:02;77301.22;;;-141.02;66.18
8477;BME280;4275;42.854;23.222;2023-06-22T09:27:29;76308.44;;;-141.02;67.78
8477;BME280;4275;42.854;23.222;2023-06-22T09:29:56;74819.81;;;-141.02;65.82
8477;BME280;4275;42.854;23.222;2023-06-22T09:32:24;76556.59;;;-141.02;66.02
8477;BME280;4275;42.854;23.222;2023-06-22T09:34:51;77301.22;;;-141.02;65.30
8477;BME280;4275;42.854;23.222;2023-06-22T09:37:19;77549.47;;;-141.02;66.15
8477;BME280;4275;42.854;23.222;2023-06-22T09:39:46;75315.94;;;-141.02;63.48
8477;BME280;4275;42.854;23.222;2023-06-22T09:42:13;75564.03;;;-141.02;63.33
8477;BME280;4275;42.854;23.222;2023-06-22T09:44:40;75812.16;;;-141.02;64.01
8477;BME280;4275;42.854;23.222;2023-06-22T09:47:07;74075.72;;;-141.02;64.71
8477;BME280;4275;42.854;23.222;2023-06-22T09:49:34;75564.03;;;-141.02;65.90
8477;BME280;4275;42.854;23.222;2023-06-22T09:52:01;76804.81;;;-141.02;66.97
8477;BME280;4275;42.854;23.222;2023-06-22T09:54:30;75812.16;;;-141.02;65.28
8477;BME280;4275;42.854;23.222;2023-06-22T09:56:57;77053.00;;;-141.02;65.46
8477;BME280;4275;42.854;23.222;2023-06-22T09:59:24;77301.22;;;-141.02;64.76
8477;BME280;4275;42.854;23.222;2023-06-22T10:01:51;78790.94;;;-141.02;63.78
8477;BME280;4275;42.854;23.222;2023-06-22T10:04:18;78790.94;;;-141.02;62.17
8477;BME280;4275;42.854;23.222;2023-06-22T10:06:44;77301.22;;;-141.02;61.82
8477;BME280;4275;42.854;23.222;2023-06-22T10:09:11;76804.81;;;-141.02;62.16
8477;BME280;4275;42.854;23.222;2023-06-22T10:11:40;76308.44;;;-141.02;59.66
8477;BME280;4275;42.854;23.222;2023-06-22T10:14:07;78790.94;;;-141.02;62.12
8477;BME280;4275;42.854;23.222;2023-06-22T10:16:35;78542.63;;;-141.02;60.07
8477;BME280;4275;42.854;23.222;2023-06-22T10:19:03;78294.28;;;-141.02;59.11
8477;BME280;4275;42.854;23.222;2023-06-22T10:21:30;78790.94;;;-141.02;59.98
8477;BME280;4275;42.854;23.222;2023-06-22T10:23:57;77053.00;;;-141.02;61.40
8477;BME280;4275;42.854;23.222;2023-06-22T10:26:24;77301.22;;;-141.02;61.40
8477;BME280;4275;42.854;23.222;2023-06-22T10:28:55;76556.59;;;-141.02;58.75
8477;BME280;4275;42.854;23.222;2023-06-22T10:31:22;75315.94;;;-141.02;59.58
8477;BME280;4275;42.854;23.222;2023-06-22T10:33:49;75315.94;;;-141.02;57.53
8477;BME280;4275;42.854;23.222;2023-06-22T10:36:16;76060.28;;;-141.02;58.98
8477;BME280;4275;42.854;23.222;2023-06-22T10:38:43;76060.28;;;-141.02;59.19
8477;BME280;4275;42.854;23.222;2023-06-22T10:41:10;75067.88;;;-141.02;56.50
8477;BME280;4275;42.854;23.222;2023-06-22T10:43:37;76556.59;;;-141.02;56.47
8477;BME280;4275;42.854;23.222;2023-06-22T10:46:06;76308.44;;;-141.02;57.15
8477;BME280;4275;42.854;23.222;2023-06-22T10:48:33;76308.44;;;-141.02;57.76
8477;BME280;4275;42.854;23.222;2023-06-22T10:51:00;74323.72;;;-141.02;55.88
8477;BME280;4275;42.854;23.222;2023-06-22T10:53:27;74323.72;;;-141.02;57.46
8477;BME280;4275;42.854;23.222;2023-06-22T10:55:54;74323.72;;;-141.02;58.61
8477;BME280;4275;42.854;23.222;2023-06-22T10:58:21;73083.88;;;-141.02;59.18
8477;BME280;4275;42.854;23.222;2023-06-22T11:00:48;74075.72;;;-141.02;61.08
8477;BME280;4275;42.854;23.222;2023-06-22T11:03:16;76060.28;;;-141.02;58.33
8477;BME280;4275;42.854;23.222;2023-06-22T11:05:43;74571.75;;;-141.02;56.18
8477;BME280;4275;42.854;23.222;2023-06-22T11:08:11;76556.59;;;-141.02;59.49
8477;BME280;4275;42.854;23.222;2023-06-22T11:10:38;72340.16;;;-141.02;58.62
8477;BME280;4275;42.854;23.222;2023-06-22T11:13:05;74819.81;;;-141.02;62.58
8477;BME280;4275;42.854;23.222;2023-06-22T11:15:35;71844.47;;;-141.02;57.44
8477;BME280;4275;42.854;23.222;2023-06-22T11:18:02;71844.47;;;-141.02;60.45
8477;BME280;4275;42.854;23.222;2023-06-22T11:20:33;70605.50;;;-141.02;58.35
8477;BME280;4275;42.854;23.222;2023-06-22T11:23:04;72340.16;;;-141.02;61.50
8477;BME280;4275;42.854;23.222;2023-06-22T11:25:32;71844.47;;;-141.02;60.58
8477;BME280;4275;42.854;23.222;2023-06-22T11:28:01;72588.06;;;-141.02;62.49
8477;BME280;4275;42.854;23.222;2023-06-22T11:30:28;73083.88;;;-141.02;62.48
8477;BME280;4275;42.854;23.222;2023-06-22T11:32:56;73331.81;;;-141.02;61.34
8477;BME280;4275;42.854;23.222;2023-06-22T11:35:24;73083.88;;;-141.02;62.50
8477;BME280;4275;42.854;23.222;2023-06-22T11:37:55;72835.97;;;-141.02;61.68
8477;BME280;4275;42.854;23.222;2023-06-22T11:40:23;72588.06;;;-141.02;61.54
8477;BME280;4275;42.854;23.222;2023-06-22T11:42:50;70357.75;;;-141.02;62.62
8477;BME280;4275;42.854;23.222;2023-06-22T11:45:17;74323.72;;;-141.02;78.14
8477;BME280;4275;42.854;23.222;2023-06-22T11:47:45;75564.03;;;-141.02;88.58
8477;BME280;4275;42.854;23.222;2023-06-22T11:50:13;80281.31;;;-141.02;100.00
8477;BME280;4275;42.854;23.222;2023-06-22T11:52:40;83263.97;;;-141.02;100.00
8477;BME280;4275;42.854;23.222;2023-06-22T11:55:09;77301.22;;;-141.02;100.00
8477;BME280;4275;42.854;23.222;2023-06-22T11:57:37;82518.06;;;-141.02;100.00
8477;BME280;4275;42.854;23.222;2023-06-22T12:00:05;86000.34;;;-141.02;100.00
8477;BME280;4275;42.854;23.222;2023-06-22T12:02:42;88240.81;;;-141.02;100.00
8477;BME280;4275;42.854;23.222;2023-06-22T12:05:10;92476.78;;;-141.02;100.00
8477;BME280;4275;42.854;23.222;2023-06-22T12:07:38;98465.78;;;-141.02;100.00
8477;BME280;4275;42.854;23.222;2023-06-22T12:10:05;102964.34;;;-141.02;100.00
8477;BME280;4275;42.854;23.222;2023-06-22T12:12:34;104965.56;;;-141.02;100.00
8477;BME280;4275;42.854;23.222;2023-06-22T12:15:01;105215.78;;;-141.02;100.00
8477;BME280;4275;42.854;23.222;2023-06-22T12:17:29;102964.34;;;-141.02;100.00
8477;BME280;4275;42.854;23.222;2023-06-22T12:19:56;99964.66;;;-141.02;100.00
8477;BME280;4275;42.854;23.222;2023-06-22T12:22:23;99215.16;;;-141.02;100.00
8477;BME280;4275;42.854;23.222;2023-06-22T12:24:50;97716.59;;;-141.02;100.00
8477;BME280;4275;42.854;23.222;2023-06-22T12:27:17;101214.22;;;-141.02;100.00
8477;BME280;4275;42.854;23.222;2023-06-22T12:29:46;104965.56;;;-141.02;100.00
8477;BME280;4275;42.854;23.222;2023-06-22T12:32:14;103214.44;;;-141.02;100.00
8477;BME280;4275;42.854;23.222;2023-06-22T12:34:41;102464.22;;;-141.02;100.00
8477;BME280;4275;42.854;23.222;2023-06-22T12:37:08;100964.25;;;-141.02;100.00
8477;BME280;4275;42.854;23.222;2023-06-22T12:39:36;99215.16;;;-141.02;100.00
8477;BME280;4275;42.854;23.222;2023-06-22T12:42:03;95969.13;;;-141.02;100.00
8477;BME280;4275;42.854;23.222;2023-06-22T12:44:31;94970.94;;;-141.02;100.00
8477;BME280;4275;42.854;23.222;2023-06-22T12:46:59;91230.38;;;-141.02;100.00
8477;BME280;4275;42.854;23.222;2023-06-22T12:49:26;89237.03;;;-141.02;100.00
8477;BME280;4275;42.854;23.222;2023-06-22T12:51:53;90233.56;;;-141.02;100.00
8477;BME280;4275;42.854;23.222;2023-06-22T12:54:20;90482.72;;;-141.02;100.00
8477;BME280;4275;42.854;23.222;2023-06-22T12:56:47;88987.97;;;-141.02;100.00
8477;BME280;4275;42.854;23.222;2023-06-22T12:59:14;87493.84;;;-141.02;100.00
8477;BME280;4275;42.854;23.222;2023-06-22T13:01:42;85502.66;;;-141.02;100.00
8477;BME280;4275;42.854;23.222;2023-06-22T13:04:12;87742.81;;;-141.02;100.00
8477;BME280;4275;42.854;23.222;2023-06-22T13:06:40;89735.28;;;-141.02;100.00
8477;BME280;4275;42.854;23.222;2023-06-22T13:09:09;90482.72;;;-141.02;100.00
8477;BME280;4275;42.854;23.222;2023-06-22T13:11:36;90233.56;;;-141.02;100.00
8477;BME280;4275;42.854;23.222;2023-06-22T13:14:03;90731.94;;;-141.02;100.00
8477;BME280;4275;42.854;23.222;2023-06-22T13:16:30;90981.13;;;-141.02;100.00
8477;BME280;4275;42.854;23.222;2023-06-22T13:18:57;90731.94;;;-141.02;100.00